Quick Links (Output Below):   Max & Min Temps   /   Climate Reports   /   Zone Forecasts
River Forecasts   /   Forestry Forecasts   /   Aviation Forecasts   /   Radars   /   Features

Terminal Aerodrome Forecast (Arkadelphia)

Pick a Site:
Arkadelphia | El Dorado | Fayetteville | Fort Smith | Harrison | Highfill | Hot Springs | Jonesboro
Little Rock | Monticello | Mountain Home | Pine Bluff | Texarkana
 Forecast 

KADF 240901Z 2409/2506 00000KT 3SM BR SCT002
      TEMPO 2409/2413 1/2SM FG VV002
     FM241500 23004KT P6SM SCT050
     FM250000 18003KT P6SM SCT250=


 Latest METARs (Observations) 
How to Decode METARs
09Z KADF 240856Z AUTO 00000KT 3SM BR FEW002 09/09 A3016 RMK AO2 50002
         T00940094 SLP227
         
08Z KADF 240756Z AUTO 00000KT 1 1/2SM BR BKN002 09/09 A3017 RMK AO2
         T00940094 SLP228
         
07Z KADF 240656Z AUTO 00000KT 6SM BR FEW002 10/10 A3016 RMK AO2
         T01000100 SLP227
         
06Z KADF 240556Z AUTO 00000KT 10SM CLR 10/10 A3016 RMK AO2 51001
         T01000100 10144 20100 SLP225
         
05Z KADF 240456Z AUTO 00000KT 7SM CLR 11/11 A3015 RMK AO2 T01050105
         402050094 SLP225
         
04Z KADF 240356Z AUTO 00000KT 10SM CLR 12/12 A3016 RMK AO2 T01160116
         SLP228
         
03Z KADF 240256Z AUTO 00000KT 10SM CLR 12/12 A3016 RMK AO2 51008
         T01220122 SLP226
         
02Z KADF 240156Z AUTO 00000KT 10SM CLR 13/13 A3015 RMK AO2 T01270127
         SLP225
         
01Z KADF 240056Z AUTO 00000KT 10SM CLR 13/13 A3015 RMK AO2 T01330127
         SLP223
         
00Z KADF 232356Z AUTO 00000KT 10SM CLR 14/13 A3013 RMK AO2 55003
         T01440133 10205 20144 SLP218
         
***** Today's Observations (Above) *****


Back to Main Page
http://www.srh.noaa.gov/lzk/qfcst.php

USA.gov is the U.S. government's official web portal to all federal, state and local government web resources and services.